createdAt,value
2017-11-16T17:58:58.221Z,1017.10
2017-11-16T17:59:58.173Z,1017.09
2017-11-16T18:02:42.556Z,1017.09
2017-11-16T18:03:42.516Z,1017.08
2017-11-16T18:06:26.920Z,1017.11
2017-11-16T18:07:26.875Z,1017.16
2017-11-16T18:08:26.871Z,1017.15
2017-11-16T18:09:26.873Z,1017.11
2017-11-16T18:10:26.852Z,1017.14
2017-11-16T18:11:26.840Z,1017.12
2017-11-16T18:12:26.845Z,1017.16
2017-11-16T18:13:26.829Z,1017.14
2017-11-16T18:14:26.824Z,1017.17
2017-11-16T18:15:26.815Z,1017.13
2017-11-16T18:16:26.810Z,1017.19
2017-11-16T18:17:26.801Z,1017.20
2017-11-16T18:18:27.455Z,1017.21
2017-11-16T18:19:26.785Z,1017.19
2017-11-16T18:20:29.463Z,1017.22
2017-11-16T18:21:26.766Z,1017.24
2017-11-16T18:22:27.458Z,1017.26
2017-11-16T18:23:26.758Z,1017.26
2017-11-16T18:24:26.743Z,1017.25
2017-11-16T18:25:26.747Z,1017.28
2017-11-16T18:26:26.729Z,1017.29
2017-11-16T18:27:26.714Z,1017.29
2017-11-16T18:28:26.713Z,1017.26
2017-11-16T18:29:26.710Z,1017.31
2017-11-16T18:30:26.705Z,1017.28
2017-11-16T18:31:26.690Z,1017.31
2017-11-16T18:32:26.695Z,1017.32
2017-11-16T18:33:27.458Z,1017.32
2017-11-16T18:34:26.667Z,1017.30
2017-11-16T18:35:26.653Z,1017.35
2017-11-16T18:36:26.652Z,1017.38
2017-11-16T18:37:26.654Z,1017.37
2017-11-16T18:38:26.654Z,1017.40
2017-11-16T18:39:26.640Z,1017.44
2017-11-16T18:40:26.631Z,1017.41
2017-11-16T18:41:26.615Z,1017.48
2017-11-16T18:42:26.611Z,1017.47
2017-11-16T18:43:26.606Z,1017.44
2017-11-16T18:44:26.599Z,1017.43
2017-11-16T18:45:27.490Z,1017.42
2017-11-16T18:46:26.580Z,1017.39
2017-11-16T18:47:26.562Z,1017.42
2017-11-16T18:48:26.561Z,1017.42
2017-11-16T18:49:26.550Z,1017.39
2017-11-16T18:50:27.465Z,1017.39
2017-11-16T18:51:26.549Z,1017.36
2017-11-16T18:52:26.543Z,1017.34
2017-11-16T18:53:26.526Z,1017.37
2017-11-16T18:54:26.522Z,1017.39
2017-11-16T18:55:26.522Z,1017.38
2017-11-16T18:56:26.507Z,1017.37
2017-11-16T18:57:26.499Z,1017.36
2017-11-16T18:58:27.483Z,1017.38
2017-11-16T18:59:26.489Z,1017.38
2017-11-16T19:00:26.475Z,1017.42
2017-11-16T19:01:26.469Z,1017.43
2017-11-16T19:02:26.482Z,1017.41
2017-11-16T19:03:26.451Z,1017.41
2017-11-16T19:04:26.439Z,1017.42
2017-11-16T19:05:26.609Z,1017.40
2017-11-16T19:06:26.966Z,1017.43
2017-11-16T19:07:26.449Z,1017.38
2017-11-16T19:08:26.416Z,1017.43
2017-11-16T19:09:26.410Z,1017.39
2017-11-16T19:10:26.410Z,1017.39
2017-11-16T19:11:26.403Z,1017.41
2017-11-16T19:12:26.379Z,1017.43
2017-11-16T19:13:26.379Z,1017.43
2017-11-16T19:14:26.445Z,1017.42
2017-11-16T19:15:26.371Z,1017.44
2017-11-16T19:16:26.388Z,1017.47
2017-11-16T19:17:26.509Z,1017.49
2017-11-16T19:18:27.223Z,1017.50
2017-11-16T19:19:26.336Z,1017.50
2017-11-16T19:20:26.360Z,1017.52
2017-11-16T19:21:26.310Z,1017.55
2017-11-16T19:22:26.311Z,1017.53
2017-11-16T19:23:26.299Z,1017.54
2017-11-16T19:24:26.292Z,1017.54
2017-11-16T19:25:26.530Z,1017.53
2017-11-16T19:26:26.294Z,1017.58
2017-11-16T19:27:26.276Z,1017.57
2017-11-16T19:28:26.265Z,1017.53
2017-11-16T19:29:26.261Z,1017.52
2017-11-16T19:30:26.254Z,1017.55
2017-11-16T19:31:26.237Z,1017.52
2017-11-16T19:32:26.238Z,1017.53
2017-11-16T19:33:26.228Z,1017.53
2017-11-16T19:34:26.223Z,1017.57
2017-11-16T19:35:26.210Z,1017.57
2017-11-16T19:36:26.225Z,1017.54
2017-11-16T19:37:26.197Z,1017.52
2017-11-16T19:38:26.198Z,1017.53
2017-11-16T19:39:26.188Z,1017.53
2017-11-16T19:40:26.187Z,1017.52
2017-11-16T19:41:26.171Z,1017.51
2017-11-16T19:42:26.166Z,1017.55
2017-11-16T19:43:26.156Z,1017.55
2017-11-16T19:44:26.149Z,1017.56
2017-11-16T19:45:26.153Z,1017.57
2017-11-16T19:46:26.123Z,1017.58
2017-11-16T19:47:26.134Z,1017.62
2017-11-16T19:48:26.128Z,1017.64
2017-11-16T19:49:26.106Z,1017.63
2017-11-16T19:50:26.129Z,1017.63
2017-11-16T19:51:26.097Z,1017.64
2017-11-16T19:52:26.090Z,1017.66
2017-11-16T19:53:26.086Z,1017.68
2017-11-16T19:54:26.086Z,1017.69
2017-11-16T19:55:26.064Z,1017.70
2017-11-16T19:56:26.069Z,1017.70
2017-11-16T19:57:26.066Z,1017.73
2017-11-16T19:58:26.043Z,1017.71
2017-11-16T19:59:26.023Z,1017.70
2017-11-16T20:00:27.003Z,1017.69
2017-11-16T20:01:26.018Z,1017.64
2017-11-16T20:02:26.012Z,1017.66
2017-11-16T20:03:26.003Z,1017.73
2017-11-16T20:04:25.998Z,1017.67
2017-11-16T20:05:26.485Z,1017.69
2017-11-16T20:06:25.983Z,1017.76
2017-11-16T20:07:25.973Z,1017.74
2017-11-16T20:08:26.498Z,1017.71
2017-11-16T20:09:25.955Z,1017.72
2017-11-16T20:10:25.961Z,1017.73
2017-11-16T20:11:25.948Z,1017.73
2017-11-16T20:12:25.958Z,1017.73
2017-11-16T20:13:25.949Z,1017.74
2017-11-16T20:14:26.500Z,1017.72
2017-11-16T20:15:26.505Z,1017.75
2017-11-16T20:16:26.496Z,1017.71
2017-11-16T20:17:25.897Z,1017.71
2017-11-16T20:18:25.894Z,1017.76
2017-11-16T20:19:25.903Z,1017.73
2017-11-16T20:20:25.892Z,1017.71
2017-11-16T20:21:26.505Z,1017.76
2017-11-16T20:22:28.514Z,1017.79
2017-11-16T20:23:25.874Z,1017.75
2017-11-16T20:24:25.867Z,1017.78
2017-11-16T20:25:25.857Z,1017.76
2017-11-16T20:26:25.833Z,1017.77
2017-11-16T20:27:25.830Z,1017.80
2017-11-16T20:28:25.835Z,1017.82
2017-11-16T20:29:25.816Z,1017.81
2017-11-16T20:30:25.799Z,1017.82
2017-11-16T20:31:25.810Z,1017.77
2017-11-16T20:32:26.517Z,1017.82
2017-11-16T20:33:25.794Z,1017.82
2017-11-16T20:34:25.776Z,1017.84
2017-11-16T20:35:25.803Z,1017.84
2017-11-16T20:36:25.770Z,1017.85
2017-11-16T20:37:25.754Z,1017.80
2017-11-16T20:38:25.769Z,1017.78
2017-11-16T20:39:25.753Z,1017.82
2017-11-16T20:40:40.519Z,1017.80
2017-11-16T20:41:31.013Z,1017.75
2017-11-16T20:42:30.990Z,1017.77
2017-11-16T20:43:30.998Z,1017.76
2017-11-16T20:44:30.978Z,1017.75
2017-11-16T20:45:30.968Z,1017.75
2017-11-16T20:46:31.519Z,1017.76
2017-11-16T20:47:30.942Z,1017.80
2017-11-16T20:48:31.524Z,1017.74
2017-11-16T20:49:30.937Z,1017.79
2017-11-16T20:50:30.943Z,1017.78
2017-11-16T20:51:30.921Z,1017.83
2017-11-16T20:52:30.927Z,1017.85
2017-11-16T20:53:30.910Z,1017.85
2017-11-16T20:54:30.901Z,1017.86
2017-11-16T20:55:30.897Z,1017.86
2017-11-16T20:56:30.887Z,1017.82
2017-11-16T20:57:30.886Z,1017.82
2017-11-16T20:58:30.869Z,1017.85
2017-11-16T20:59:30.851Z,1017.87
2017-11-16T21:00:30.844Z,1017.86
2017-11-16T21:01:30.837Z,1017.92
2017-11-16T21:02:30.841Z,1017.89
2017-11-16T21:03:30.827Z,1017.91
2017-11-16T21:04:30.809Z,1017.87
2017-11-16T21:05:30.832Z,1017.84
2017-11-16T21:06:30.817Z,1017.84
2017-11-16T21:07:30.801Z,1017.88
2017-11-16T21:08:30.778Z,1017.81
2017-11-16T21:09:30.780Z,1017.87
2017-11-16T21:10:30.768Z,1017.81
2017-11-16T21:11:31.540Z,1017.83
2017-11-16T21:12:31.518Z,1017.81
2017-11-16T21:13:30.764Z,1017.82
2017-11-16T21:14:30.754Z,1017.83
2017-11-16T21:15:30.730Z,1017.79
2017-11-16T21:16:30.746Z,1017.80
2017-11-16T21:17:30.723Z,1017.82
2017-11-16T21:18:30.716Z,1017.81
2017-11-16T21:19:30.715Z,1017.85
2017-11-16T21:20:30.692Z,1017.81
2017-11-16T21:21:30.688Z,1017.78
2017-11-16T21:22:30.673Z,1017.82
2017-11-16T21:23:30.681Z,1017.86
2017-11-16T21:24:30.661Z,1017.88
2017-11-16T21:25:30.674Z,1017.89
2017-11-16T21:25:42.667Z,1017.92
2017-11-16T21:27:30.647Z,1017.90
2017-11-16T21:28:30.653Z,1017.89
2017-11-16T21:29:30.637Z,1017.95
2017-11-16T21:30:30.615Z,1017.95
2017-11-16T21:31:30.608Z,1017.89
2017-11-16T21:32:30.611Z,1017.92
2017-11-16T21:33:30.620Z,1017.88
2017-11-16T21:34:30.598Z,1017.89
2017-11-16T21:35:30.585Z,1017.91
2017-11-16T21:36:30.580Z,1017.87
2017-11-16T21:37:30.576Z,1017.89
2017-11-16T21:38:30.566Z,1017.88
2017-11-16T21:39:30.569Z,1017.84
2017-11-16T21:40:30.544Z,1017.85
2017-11-16T21:41:30.543Z,1017.87
2017-11-16T21:42:30.522Z,1017.81
2017-11-16T21:43:33.036Z,1017.86
2017-11-16T21:44:30.510Z,1017.84
2017-11-16T21:45:30.501Z,1017.88
2017-11-16T21:46:30.493Z,1017.85
2017-11-16T21:47:30.497Z,1017.84
2017-11-16T21:48:30.482Z,1017.84
2017-11-16T21:49:30.471Z,1017.85
2017-11-16T21:50:30.473Z,1017.84
2017-11-16T21:51:30.465Z,1017.82
2017-11-16T21:52:30.462Z,1017.83
2017-11-16T21:53:30.438Z,1017.82
2017-11-16T21:54:30.435Z,1017.84
2017-11-16T21:55:30.424Z,1017.84
2017-11-16T21:56:30.425Z,1017.83
2017-11-16T21:57:30.416Z,1017.85
2017-11-16T21:58:30.400Z,1017.82
2017-11-16T21:59:30.392Z,1017.80
2017-11-16T22:00:30.384Z,1017.81
2017-11-16T22:01:30.375Z,1017.81
2017-11-16T22:02:30.369Z,1017.82
2017-11-16T22:03:30.362Z,1017.83
2017-11-16T22:04:30.352Z,1017.83
2017-11-16T22:05:30.350Z,1017.77
2017-11-16T22:06:30.345Z,1017.79
2017-11-16T22:07:30.337Z,1017.77
2017-11-16T22:08:30.324Z,1017.80
2017-11-16T22:09:30.322Z,1017.80
2017-11-16T22:10:30.311Z,1017.81
2017-11-16T22:11:30.308Z,1017.78
2017-11-16T22:12:30.298Z,1017.79
2017-11-16T22:13:30.286Z,1017.81
2017-11-16T22:14:30.280Z,1017.80
2017-11-16T22:15:30.269Z,1017.79
2017-11-16T22:16:30.275Z,1017.82
2017-11-16T22:17:30.256Z,1017.87
2017-11-16T22:18:30.247Z,1017.86
2017-11-16T22:19:30.234Z,1017.90
2017-11-16T22:20:30.241Z,1017.87
2017-11-16T22:21:30.235Z,1017.87
2017-11-16T22:22:30.218Z,1017.88
2017-11-16T22:23:30.207Z,1017.85
2017-11-16T22:24:30.203Z,1017.85
2017-11-16T22:25:30.193Z,1017.87
2017-11-16T22:26:30.190Z,1017.86
2017-11-16T22:27:30.179Z,1017.87
2017-11-16T22:28:30.175Z,1017.90
2017-11-16T22:29:30.157Z,1017.90
2017-11-16T22:30:30.156Z,1017.86
2017-11-16T22:31:30.146Z,1017.89
2017-11-16T22:32:30.138Z,1017.90
2017-11-16T22:33:30.146Z,1017.90
2017-11-16T22:34:30.124Z,1017.91
2017-11-16T22:35:30.114Z,1017.94
2017-11-16T22:36:30.110Z,1017.94
2017-11-16T22:37:30.117Z,1017.97
2017-11-16T22:38:30.094Z,1017.95
2017-11-16T22:39:30.088Z,1018.01
2017-11-16T22:40:30.081Z,1017.99
2017-11-16T22:41:30.071Z,1017.99
2017-11-16T22:42:30.080Z,1017.97
2017-11-16T22:43:30.050Z,1018.01
2017-11-16T22:44:30.546Z,1017.98
2017-11-16T22:45:30.037Z,1017.99
2017-11-16T22:46:30.040Z,1017.97
2017-11-16T22:47:30.026Z,1017.95
2017-11-16T22:48:30.021Z,1017.94
2017-11-16T22:49:30.017Z,1017.95
2017-11-16T22:50:29.999Z,1017.92
2017-11-16T22:51:29.995Z,1017.91
2017-11-16T22:52:29.985Z,1017.93
2017-11-16T22:53:29.981Z,1017.90
2017-11-16T22:54:29.973Z,1017.90
2017-11-16T22:55:29.964Z,1017.91
2017-11-16T22:56:29.958Z,1017.92
2017-11-16T22:57:29.947Z,1017.89
2017-11-16T22:58:29.937Z,1017.92
2017-11-16T22:59:29.926Z,1017.89
2017-11-16T23:00:29.925Z,1017.90
2017-11-16T23:01:29.920Z,1017.95
2017-11-16T23:02:29.914Z,1017.94
2017-11-16T23:03:29.904Z,1017.94
2017-11-16T23:04:29.895Z,1017.94
2017-11-16T23:05:29.892Z,1017.97
2017-11-16T23:06:29.884Z,1017.96
2017-11-16T23:07:29.877Z,1017.95
2017-11-16T23:08:29.873Z,1017.96
2017-11-16T23:09:29.861Z,1017.96
2017-11-16T23:10:29.846Z,1017.96
2017-11-16T23:11:29.845Z,1018.00
2017-11-16T23:12:29.829Z,1017.96
2017-11-16T23:13:29.825Z,1018.00
2017-11-16T23:14:29.820Z,1017.99
2017-11-16T23:15:29.808Z,1018.01
2017-11-16T23:16:29.800Z,1017.99
2017-11-16T23:17:29.811Z,1018.00
2017-11-16T23:18:29.790Z,1018.01
2017-11-16T23:19:29.775Z,1017.99
2017-11-16T23:20:29.776Z,1017.99
2017-11-16T23:21:29.767Z,1018.02
2017-11-16T23:22:29.770Z,1017.97
2017-11-16T23:23:29.751Z,1017.97
2017-11-16T23:24:29.742Z,1017.97
2017-11-16T23:25:29.734Z,1018.01
2017-11-16T23:26:29.723Z,1018.00
2017-11-16T23:27:29.717Z,1018.01
2017-11-16T23:28:29.710Z,1017.97
2017-11-16T23:29:29.702Z,1018.00
2017-11-16T23:30:29.688Z,1017.99
2017-11-16T23:31:29.682Z,1017.99
2017-11-16T23:32:29.690Z,1017.98
2017-11-16T23:33:29.675Z,1017.97
2017-11-16T23:34:29.666Z,1017.94
2017-11-16T23:35:29.656Z,1017.99
2017-11-16T23:36:29.657Z,1017.94
2017-11-16T23:37:29.644Z,1017.96
2017-11-16T23:38:29.635Z,1017.94
2017-11-16T23:39:29.634Z,1017.95
2017-11-16T23:40:29.622Z,1017.96
2017-11-16T23:41:29.615Z,1017.98
2017-11-16T23:42:29.604Z,1017.99
2017-11-16T23:43:29.596Z,1018.01
2017-11-16T23:44:29.587Z,1018.00
2017-11-16T23:45:29.594Z,1018.00
2017-11-16T23:46:29.576Z,1018.00
2017-11-16T23:47:29.569Z,1017.98
2017-11-16T23:48:29.560Z,1018.03
2017-11-16T23:49:29.553Z,1018.01
2017-11-16T23:50:29.540Z,1018.02
2017-11-16T23:51:29.533Z,1018.04
2017-11-16T23:52:29.532Z,1018.03
2017-11-16T23:53:29.517Z,1018.02
2017-11-16T23:54:29.504Z,1018.03
2017-11-16T23:55:29.505Z,1018.05
2017-11-16T23:56:29.495Z,1018.01
2017-11-16T23:57:30.075Z,1018.05
2017-11-16T23:58:29.479Z,1018.05
2017-11-16T23:59:29.484Z,1018.03
